Apison, Tennessee
Current Conditions -  °F | °C
As of 7:53 PM on Tuesday 25 Nov 2014 (Local Time) from KCHA Reporting Station
Broken Clouds Broken Clouds  
Wind Chill: 11°   Ceiling: 15000
Heat Index: 11°   Visibility: 10mi
Dew Point: -1°   Wind: 5mph
Humidity: 43%   Direction: 360°N
Pressure: 30.1"   Gusts: NA
Location:  35.02°N, 85.02°W
Report Text: KCHA 260053Z 36004KT 10SM BKN150 11/M01 A3010 RMK AO2 SLP195 T01111011
Loading
Personal Weather Stations






























Interactive Weather Map New forecast layout! Learn more

10-Day Weather Forecast

Advertisements
Track Severe Weather on mobile